sensor_id;sensor_type;location;lat;lon;timestamp;P1;durP1;ratioP1;P2;durP2;ratioP2
50543;SDS011;41176;44.032;20.900;2023-01-30T00:00:28;3.25;;;2.55;;
50543;SDS011;41176;44.032;20.900;2023-01-30T00:02:55;7.40;;;3.13;;
50543;SDS011;41176;44.032;20.900;2023-01-30T00:05:20;5.18;;;4.18;;
50543;SDS011;41176;44.032;20.900;2023-01-30T00:07:46;3.47;;;2.25;;
50543;SDS011;41176;44.032;20.900;2023-01-30T00:10:12;3.05;;;2.10;;
50543;SDS011;41176;44.032;20.900;2023-01-30T00:12:37;8.27;;;4.32;;
50543;SDS011;41176;44.032;20.900;2023-01-30T00:15:03;2.97;;;2.08;;
50543;SDS011;41176;44.032;20.900;2023-01-30T00:17:29;3.40;;;2.58;;
50543;SDS011;41176;44.032;20.900;2023-01-30T00:19:55;1.75;;;1.30;;
50543;SDS011;41176;44.032;20.900;2023-01-30T00:22:21;3.55;;;3.25;;
50543;SDS011;41176;44.032;20.900;2023-01-30T00:24:47;3.28;;;2.20;;
50543;SDS011;41176;44.032;20.900;2023-01-30T00:27:12;2.88;;;2.25;;
50543;SDS011;41176;44.032;20.900;2023-01-30T00:29:38;6.40;;;3.72;;
50543;SDS011;41176;44.032;20.900;2023-01-30T00:32:03;2.67;;;2.35;;
50543;SDS011;41176;44.032;20.900;2023-01-30T00:34:29;6.13;;;4.93;;
50543;SDS011;41176;44.032;20.900;2023-01-30T00:36:55;2.97;;;2.45;;
50543;SDS011;41176;44.032;20.900;2023-01-30T00:39:20;7.22;;;4.72;;
50543;SDS011;41176;44.032;20.900;2023-01-30T00:41:46;3.83;;;2.75;;
50543;SDS011;41176;44.032;20.900;2023-01-30T00:44:30;4.72;;;3.10;;
50543;SDS011;41176;44.032;20.900;2023-01-30T00:47:14;8.27;;;4.25;;
50543;SDS011;41176;44.032;20.900;2023-01-30T00:49:40;5.72;;;4.22;;
50543;SDS011;41176;44.032;20.900;2023-01-30T00:52:06;4.60;;;4.13;;
50543;SDS011;41176;44.032;20.900;2023-01-30T00:54:32;3.88;;;3.17;;
50543;SDS011;41176;44.032;20.900;2023-01-30T00:56:57;5.78;;;3.05;;
50543;SDS011;41176;44.032;20.900;2023-01-30T00:59:23;4.60;;;2.28;;
50543;SDS011;41176;44.032;20.900;2023-01-30T01:01:50;5.47;;;3.70;;
50543;SDS011;41176;44.032;20.900;2023-01-30T01:04:15;3.88;;;3.35;;
50543;SDS011;41176;44.032;20.900;2023-01-30T01:06:41;2.85;;;2.13;;
50543;SDS011;41176;44.032;20.900;2023-01-30T01:09:07;2.60;;;2.40;;
50543;SDS011;41176;44.032;20.900;2023-01-30T01:11:33;3.83;;;1.95;;
50543;SDS011;41176;44.032;20.900;2023-01-30T01:13:59;2.63;;;1.52;;
50543;SDS011;41176;44.032;20.900;2023-01-30T01:16:26;2.53;;;1.55;;
50543;SDS011;41176;44.032;20.900;2023-01-30T01:18:53;3.28;;;2.67;;
50543;SDS011;41176;44.032;20.900;2023-01-30T01:21:19;3.47;;;3.00;;
50543;SDS011;41176;44.032;20.900;2023-01-30T01:23:52;3.75;;;3.03;;
50543;SDS011;41176;44.032;20.900;2023-01-30T01:26:20;0.60;;;0.55;;
50543;SDS011;41176;44.032;20.900;2023-01-30T01:28:46;4.93;;;1.50;;
50543;SDS011;41176;44.032;20.900;2023-01-30T01:31:12;4.10;;;2.17;;
50543;SDS011;41176;44.032;20.900;2023-01-30T01:33:39;4.82;;;4.18;;
50543;SDS011;41176;44.032;20.900;2023-01-30T01:36:05;3.75;;;2.08;;
50543;SDS011;41176;44.032;20.900;2023-01-30T01:38:32;3.03;;;1.60;;
50543;SDS011;41176;44.032;20.900;2023-01-30T01:40:58;3.38;;;2.65;;
50543;SDS011;41176;44.032;20.900;2023-01-30T01:43:27;4.28;;;2.55;;
50543;SDS011;41176;44.032;20.900;2023-01-30T01:45:59;3.72;;;3.42;;
50543;SDS011;41176;44.032;20.900;2023-01-30T01:48:45;2.40;;;2.17;;
50543;SDS011;41176;44.032;20.900;2023-01-30T01:51:16;3.40;;;1.75;;
50543;SDS011;41176;44.032;20.900;2023-01-30T01:53:54;3.28;;;2.97;;
50543;SDS011;41176;44.032;20.900;2023-01-30T01:56:33;4.38;;;2.95;;
50543;SDS011;41176;44.032;20.900;2023-01-30T01:59:04;1.52;;;1.42;;
50543;SDS011;41176;44.032;20.900;2023-01-30T02:01:44;2.20;;;2.00;;
50543;SDS011;41176;44.032;20.900;2023-01-30T02:04:10;3.33;;;2.17;;
50543;SDS011;41176;44.032;20.900;2023-01-30T02:06:37;4.30;;;2.45;;
50543;SDS011;41176;44.032;20.900;2023-01-30T02:09:06;1.40;;;1.30;;
50543;SDS011;41176;44.032;20.900;2023-01-30T02:11:37;2.50;;;1.80;;
50543;SDS011;41176;44.032;20.900;2023-01-30T02:14:13;1.70;;;1.60;;
50543;SDS011;41176;44.032;20.900;2023-01-30T02:16:40;1.75;;;1.27;;
50543;SDS011;41176;44.032;20.900;2023-01-30T02:19:14;1.42;;;1.25;;
50543;SDS011;41176;44.032;20.900;2023-01-30T02:25:04;2.97;;;2.03;;
50543;SDS011;41176;44.032;20.900;2023-01-30T02:27:46;5.22;;;1.88;;
50543;SDS011;41176;44.032;20.900;2023-01-30T02:36:04;6.10;;;1.67;;
50543;SDS011;41176;44.032;20.900;2023-01-30T02:41:23;2.55;;;1.38;;
50543;SDS011;41176;44.032;20.900;2023-01-30T02:44:23;3.75;;;2.75;;
50543;SDS011;41176;44.032;20.900;2023-01-30T02:47:14;3.08;;;1.92;;
50543;SDS011;41176;44.032;20.900;2023-01-30T02:49:47;4.22;;;2.33;;
50543;SDS011;41176;44.032;20.900;2023-01-30T02:52:26;3.47;;;1.67;;
50543;SDS011;41176;44.032;20.900;2023-01-30T02:54:53;0.95;;;0.88;;
50543;SDS011;41176;44.032;20.900;2023-01-30T02:57:20;1.55;;;1.23;;
50543;SDS011;41176;44.032;20.900;2023-01-30T02:59:51;6.82;;;2.17;;
50543;SDS011;41176;44.032;20.900;2023-01-30T03:16:24;1.10;;;1.05;;
50543;SDS011;41176;44.032;20.900;2023-01-30T03:19:02;1.80;;;1.05;;
50543;SDS011;41176;44.032;20.900;2023-01-30T03:21:31;3.10;;;2.80;;
50543;SDS011;41176;44.032;20.900;2023-01-30T03:23:57;1.30;;;1.20;;
50543;SDS011;41176;44.032;20.900;2023-01-30T03:26:27;2.33;;;1.80;;
50543;SDS011;41176;44.032;20.900;2023-01-30T03:28:56;3.40;;;2.15;;
50543;SDS011;41176;44.032;20.900;2023-01-30T03:31:23;1.23;;;1.10;;
50543;SDS011;41176;44.032;20.900;2023-01-30T03:33:48;0.43;;;0.43;;
50543;SDS011;41176;44.032;20.900;2023-01-30T03:36:14;3.83;;;1.05;;
50543;SDS011;41176;44.032;20.900;2023-01-30T03:38:40;3.85;;;3.55;;
50543;SDS011;41176;44.032;20.900;2023-01-30T03:41:05;3.85;;;1.88;;
50543;SDS011;41176;44.032;20.900;2023-01-30T03:43:31;6.82;;;3.10;;
50543;SDS011;41176;44.032;20.900;2023-01-30T03:45:57;1.75;;;1.40;;
50543;SDS011;41176;44.032;20.900;2023-01-30T03:48:22;1.90;;;0.93;;
50543;SDS011;41176;44.032;20.900;2023-01-30T03:50:48;3.15;;;2.45;;
50543;SDS011;41176;44.032;20.900;2023-01-30T03:53:14;5.18;;;2.63;;
50543;SDS011;41176;44.032;20.900;2023-01-30T03:55:39;2.22;;;2.03;;
50543;SDS011;41176;44.032;20.900;2023-01-30T03:58:05;1.10;;;0.93;;
50543;SDS011;41176;44.032;20.900;2023-01-30T04:00:31;1.33;;;0.80;;
50543;SDS011;41176;44.032;20.900;2023-01-30T04:02:56;1.20;;;1.10;;
50543;SDS011;41176;44.032;20.900;2023-01-30T04:05:23;2.03;;;1.27;;
50543;SDS011;41176;44.032;20.900;2023-01-30T04:07:49;3.90;;;2.20;;
50543;SDS011;41176;44.032;20.900;2023-01-30T04:10:15;2.17;;;1.42;;
50543;SDS011;41176;44.032;20.900;2023-01-30T04:12:43;2.10;;;1.25;;
50543;SDS011;41176;44.032;20.900;2023-01-30T04:15:10;2.25;;;2.05;;
50543;SDS011;41176;44.032;20.900;2023-01-30T04:17:36;1.00;;;0.80;;
50543;SDS011;41176;44.032;20.900;2023-01-30T04:20:01;3.20;;;1.55;;
50543;SDS011;41176;44.032;20.900;2023-01-30T04:22:28;2.55;;;0.88;;
50543;SDS011;41176;44.032;20.900;2023-01-30T04:24:53;3.92;;;1.48;;
50543;SDS011;41176;44.032;20.900;2023-01-30T04:27:19;2.08;;;1.60;;
50543;SDS011;41176;44.032;20.900;2023-01-30T04:29:44;1.58;;;1.48;;
50543;SDS011;41176;44.032;20.900;2023-01-30T04:32:10;1.38;;;1.15;;
50543;SDS011;41176;44.032;20.900;2023-01-30T04:34:36;1.13;;;1.02;;
50543;SDS011;41176;44.032;20.900;2023-01-30T04:37:01;1.90;;;1.23;;
50543;SDS011;41176;44.032;20.900;2023-01-30T04:39:27;1.92;;;1.55;;
50543;SDS011;41176;44.032;20.900;2023-01-30T04:41:52;1.30;;;1.20;;
50543;SDS011;41176;44.032;20.900;2023-01-30T04:44:18;0.68;;;0.68;;
50543;SDS011;41176;44.032;20.900;2023-01-30T04:46:44;0.90;;;0.88;;
50543;SDS011;41176;44.032;20.900;2023-01-30T04:49:09;1.50;;;1.40;;
50543;SDS011;41176;44.032;20.900;2023-01-30T04:51:35;1.98;;;1.77;;
50543;SDS011;41176;44.032;20.900;2023-01-30T04:54:01;2.72;;;1.80;;
50543;SDS011;41176;44.032;20.900;2023-01-30T04:56:27;1.83;;;0.93;;
50543;SDS011;41176;44.032;20.900;2023-01-30T04:58:52;3.25;;;1.75;;
50543;SDS011;41176;44.032;20.900;2023-01-30T05:03:52;1.50;;;1.23;;
50543;SDS011;41176;44.032;20.900;2023-01-30T05:06:18;5.60;;;1.90;;
50543;SDS011;41176;44.032;20.900;2023-01-30T05:08:46;1.73;;;1.52;;
50543;SDS011;41176;44.032;20.900;2023-01-30T05:11:16;1.35;;;1.25;;
50543;SDS011;41176;44.032;20.900;2023-01-30T05:13:42;4.60;;;3.08;;
50543;SDS011;41176;44.032;20.900;2023-01-30T05:16:09;2.83;;;2.08;;
50543;SDS011;41176;44.032;20.900;2023-01-30T05:18:35;2.25;;;2.05;;
50543;SDS011;41176;44.032;20.900;2023-01-30T05:21:08;3.25;;;1.33;;
50543;SDS011;41176;44.032;20.900;2023-01-30T05:23:38;4.20;;;1.90;;
50543;SDS011;41176;44.032;20.900;2023-01-30T05:26:04;1.90;;;1.20;;
50543;SDS011;41176;44.032;20.900;2023-01-30T05:28:30;2.85;;;1.35;;
50543;SDS011;41176;44.032;20.900;2023-01-30T05:31:00;1.90;;;1.42;;
50543;SDS011;41176;44.032;20.900;2023-01-30T05:33:27;3.22;;;2.92;;
50543;SDS011;41176;44.032;20.900;2023-01-30T05:35:52;4.35;;;2.67;;
50543;SDS011;41176;44.032;20.900;2023-01-30T05:38:18;1.85;;;1.08;;
50543;SDS011;41176;44.032;20.900;2023-01-30T05:40:44;1.27;;;1.17;;
50543;SDS011;41176;44.032;20.900;2023-01-30T05:43:09;1.85;;;1.10;;
50543;SDS011;41176;44.032;20.900;2023-01-30T05:45:35;2.63;;;1.80;;
50543;SDS011;41176;44.032;20.900;2023-01-30T05:48:01;1.25;;;1.00;;
50543;SDS011;41176;44.032;20.900;2023-01-30T05:50:27;2.20;;;2.05;;
50543;SDS011;41176;44.032;20.900;2023-01-30T05:52:53;1.52;;;1.42;;
50543;SDS011;41176;44.032;20.900;2023-01-30T05:55:19;2.15;;;1.98;;
50543;SDS011;41176;44.032;20.900;2023-01-30T05:57:44;1.98;;;1.77;;
50543;SDS011;41176;44.032;20.900;2023-01-30T06:00:10;4.38;;;2.55;;
50543;SDS011;41176;44.032;20.900;2023-01-30T06:02:36;2.45;;;2.13;;
50543;SDS011;41176;44.032;20.900;2023-01-30T06:05:02;1.75;;;1.48;;
50543;SDS011;41176;44.032;20.900;2023-01-30T06:07:28;1.50;;;1.40;;
50543;SDS011;41176;44.032;20.900;2023-01-30T06:09:53;1.40;;;1.23;;
50543;SDS011;41176;44.032;20.900;2023-01-30T06:12:19;2.00;;;1.85;;
50543;SDS011;41176;44.032;20.900;2023-01-30T06:14:45;4.50;;;3.30;;
50543;SDS011;41176;44.032;20.900;2023-01-30T06:17:10;4.35;;;2.95;;
50543;SDS011;41176;44.032;20.900;2023-01-30T06:19:36;2.88;;;2.38;;
50543;SDS011;41176;44.032;20.900;2023-01-30T06:22:01;2.47;;;1.48;;
50543;SDS011;41176;44.032;20.900;2023-01-30T06:24:27;6.35;;;2.20;;
50543;SDS011;41176;44.032;20.900;2023-01-30T06:26:53;4.43;;;1.60;;
50543;SDS011;41176;44.032;20.900;2023-01-30T06:29:19;3.83;;;3.53;;
50543;SDS011;41176;44.032;20.900;2023-01-30T06:31:45;2.45;;;2.17;;
50543;SDS011;41176;44.032;20.900;2023-01-30T06:34:10;3.47;;;2.83;;
50543;SDS011;41176;44.032;20.900;2023-01-30T06:36:36;8.85;;;3.35;;
50543;SDS011;41176;44.032;20.900;2023-01-30T06:39:02;4.20;;;2.72;;
50543;SDS011;41176;44.032;20.900;2023-01-30T06:41:28;5.45;;;4.95;;
50543;SDS011;41176;44.032;20.900;2023-01-30T06:43:53;6.57;;;4.90;;
50543;SDS011;41176;44.032;20.900;2023-01-30T06:46:19;4.15;;;3.13;;
50543;SDS011;41176;44.032;20.900;2023-01-30T06:48:45;4.93;;;4.55;;
50543;SDS011;41176;44.032;20.900;2023-01-30T06:51:11;5.07;;;3.00;;
50543;SDS011;41176;44.032;20.900;2023-01-30T06:53:37;10.60;;;3.30;;
50543;SDS011;41176;44.032;20.900;2023-01-30T06:56:03;1.55;;;1.27;;
50543;SDS011;41176;44.032;20.900;2023-01-30T06:58:29;4.95;;;3.90;;
50543;SDS011;41176;44.032;20.900;2023-01-30T07:00:54;2.88;;;2.67;;
50543;SDS011;41176;44.032;20.900;2023-01-30T07:03:20;3.92;;;3.38;;
50543;SDS011;41176;44.032;20.900;2023-01-30T07:05:46;0.52;;;0.52;;
50543;SDS011;41176;44.032;20.900;2023-01-30T07:08:12;1.73;;;1.35;;
50543;SDS011;41176;44.032;20.900;2023-01-30T07:10:39;1.83;;;1.65;;
50543;SDS011;41176;44.032;20.900;2023-01-30T07:13:05;2.13;;;1.10;;
50543;SDS011;41176;44.032;20.900;2023-01-30T07:15:31;1.90;;;1.65;;
50543;SDS011;41176;44.032;20.900;2023-01-30T07:18:00;2.40;;;2.15;;
50543;SDS011;41176;44.032;20.900;2023-01-30T07:20:26;1.73;;;1.63;;
50543;SDS011;41176;44.032;20.900;2023-01-30T07:22:54;1.60;;;1.50;;
50543;SDS011;41176;44.032;20.900;2023-01-30T07:25:20;2.08;;;1.67;;
50543;SDS011;41176;44.032;20.900;2023-01-30T07:27:51;0.95;;;0.85;;
50543;SDS011;41176;44.032;20.900;2023-01-30T07:30:18;2.78;;;2.50;;
50543;SDS011;41176;44.032;20.900;2023-01-30T07:32:48;1.60;;;1.50;;
50543;SDS011;41176;44.032;20.900;2023-01-30T07:35:18;3.50;;;2.05;;
50543;SDS011;41176;44.032;20.900;2023-01-30T07:37:46;1.92;;;1.60;;
50543;SDS011;41176;44.032;20.900;2023-01-30T07:40:12;2.38;;;1.40;;
50543;SDS011;41176;44.032;20.900;2023-01-30T07:42:39;1.77;;;1.58;;
50543;SDS011;41176;44.032;20.900;2023-01-30T07:45:05;2.55;;;2.35;;
50543;SDS011;41176;44.032;20.900;2023-01-30T07:47:31;2.53;;;1.77;;
50543;SDS011;41176;44.032;20.900;2023-01-30T07:49:56;3.92;;;3.00;;
50543;SDS011;41176;44.032;20.900;2023-01-30T07:52:22;3.40;;;3.10;;
50543;SDS011;41176;44.032;20.900;2023-01-30T07:54:48;2.38;;;1.90;;
50543;SDS011;41176;44.032;20.900;2023-01-30T07:57:13;2.25;;;1.95;;
50543;SDS011;41176;44.032;20.900;2023-01-30T07:59:39;1.73;;;1.55;;
50543;SDS011;41176;44.032;20.900;2023-01-30T08:02:05;2.83;;;1.63;;
50543;SDS011;41176;44.032;20.900;2023-01-30T08:04:33;4.55;;;3.45;;
50543;SDS011;41176;44.032;20.900;2023-01-30T08:06:58;1.92;;;1.83;;
50543;SDS011;41176;44.032;20.900;2023-01-30T08:09:24;2.75;;;2.10;;
50543;SDS011;41176;44.032;20.900;2023-01-30T08:11:50;4.10;;;2.33;;
50543;SDS011;41176;44.032;20.900;2023-01-30T08:14:16;2.88;;;2.42;;
50543;SDS011;41176;44.032;20.900;2023-01-30T08:16:41;6.22;;;3.28;;
50543;SDS011;41176;44.032;20.900;2023-01-30T08:19:07;2.70;;;2.05;;
50543;SDS011;41176;44.032;20.900;2023-01-30T08:21:33;2.40;;;1.33;;
50543;SDS011;41176;44.032;20.900;2023-01-30T08:23:58;2.95;;;2.67;;
50543;SDS011;41176;44.032;20.900;2023-01-30T08:26:24;4.43;;;3.30;;
50543;SDS011;41176;44.032;20.900;2023-01-30T08:28:50;1.85;;;1.50;;
50543;SDS011;41176;44.032;20.900;2023-01-30T08:31:16;9.30;;;2.60;;
50543;SDS011;41176;44.032;20.900;2023-01-30T08:33:42;3.00;;;2.35;;
50543;SDS011;41176;44.032;20.900;2023-01-30T08:36:08;3.53;;;2.72;;
50543;SDS011;41176;44.032;20.900;2023-01-30T08:38:33;3.55;;;3.25;;
50543;SDS011;41176;44.032;20.900;2023-01-30T08:40:59;7.03;;;2.50;;
50543;SDS011;41176;44.032;20.900;2023-01-30T08:43:25;7.22;;;3.47;;
50543;SDS011;41176;44.032;20.900;2023-01-30T08:45:54;3.85;;;2.67;;
50543;SDS011;41176;44.032;20.900;2023-01-30T08:48:21;5.07;;;4.15;;
50543;SDS011;41176;44.032;20.900;2023-01-30T08:50:50;1.55;;;1.40;;
50543;SDS011;41176;44.032;20.900;2023-01-30T08:53:19;1.67;;;1.58;;
50543;SDS011;41176;44.032;20.900;2023-01-30T08:55:45;3.03;;;2.67;;
50543;SDS011;41176;44.032;20.900;2023-01-30T08:58:13;8.32;;;4.10;;
50543;SDS011;41176;44.032;20.900;2023-01-30T09:00:39;4.40;;;3.88;;
50543;SDS011;41176;44.032;20.900;2023-01-30T09:03:08;2.55;;;1.95;;
50543;SDS011;41176;44.032;20.900;2023-01-30T09:05:34;3.13;;;2.75;;
50543;SDS011;41176;44.032;20.900;2023-01-30T09:07:59;4.50;;;2.78;;
50543;SDS011;41176;44.032;20.900;2023-01-30T09:10:25;2.35;;;2.13;;
50543;SDS011;41176;44.032;20.900;2023-01-30T09:12:51;2.53;;;1.95;;
50543;SDS011;41176;44.032;20.900;2023-01-30T09:15:16;1.30;;;1.20;;
50543;SDS011;41176;44.032;20.900;2023-01-30T09:17:42;2.80;;;2.50;;
50543;SDS011;41176;44.032;20.900;2023-01-30T09:20:09;1.80;;;1.52;;
50543;SDS011;41176;44.032;20.900;2023-01-30T09:22:35;1.23;;;0.88;;
50543;SDS011;41176;44.032;20.900;2023-01-30T09:25:01;2.15;;;1.95;;
50543;SDS011;41176;44.032;20.900;2023-01-30T09:27:27;3.17;;;2.05;;
50543;SDS011;41176;44.032;20.900;2023-01-30T09:29:53;2.90;;;2.00;;
50543;SDS011;41176;44.032;20.900;2023-01-30T09:32:18;2.03;;;1.38;;
50543;SDS011;41176;44.032;20.900;2023-01-30T09:34:44;3.17;;;2.92;;
50543;SDS011;41176;44.032;20.900;2023-01-30T09:37:10;5.70;;;3.40;;
50543;SDS011;41176;44.032;20.900;2023-01-30T09:39:35;2.00;;;1.80;;
50543;SDS011;41176;44.032;20.900;2023-01-30T09:55:56;2.97;;;1.73;;
50543;SDS011;41176;44.032;20.900;2023-01-30T09:58:23;1.58;;;1.38;;
50543;SDS011;41176;44.032;20.900;2023-01-30T10:00:55;2.40;;;1.65;;
50543;SDS011;41176;44.032;20.900;2023-01-30T10:03:31;8.75;;;4.53;;
50543;SDS011;41176;44.032;20.900;2023-01-30T10:06:03;14.40;;;6.05;;
50543;SDS011;41176;44.032;20.900;2023-01-30T10:11:53;12.20;;;4.82;;
50543;SDS011;41176;44.032;20.900;2023-01-30T10:17:39;3.40;;;2.65;;
50543;SDS011;41176;44.032;20.900;2023-01-30T10:26:08;2.20;;;1.90;;
50543;SDS011;41176;44.032;20.900;2023-01-30T10:28:37;3.40;;;2.83;;
50543;SDS011;41176;44.032;20.900;2023-01-30T10:31:10;2.33;;;1.83;;
50543;SDS011;41176;44.032;20.900;2023-01-30T10:33:43;5.13;;;2.55;;
50543;SDS011;41176;44.032;20.900;2023-01-30T10:36:49;4.05;;;2.65;;
50543;SDS011;41176;44.032;20.900;2023-01-30T10:42:06;2.72;;;2.05;;
50543;SDS011;41176;44.032;20.900;2023-01-30T10:44:41;4.88;;;2.95;;
50543;SDS011;41176;44.032;20.900;2023-01-30T10:47:17;5.75;;;3.25;;
50543;SDS011;41176;44.032;20.900;2023-01-30T10:52:52;3.92;;;2.90;;
50543;SDS011;41176;44.032;20.900;2023-01-30T10:55:29;7.18;;;4.20;;
50543;SDS011;41176;44.032;20.900;2023-01-30T10:58:01;8.52;;;4.07;;
50543;SDS011;41176;44.032;20.900;2023-01-30T11:00:40;9.25;;;3.75;;
50543;SDS011;41176;44.032;20.900;2023-01-30T11:03:32;3.70;;;2.05;;
50543;SDS011;41176;44.032;20.900;2023-01-30T11:06:15;10.85;;;3.25;;
50543;SDS011;41176;44.032;20.900;2023-01-30T11:08:43;2.90;;;2.08;;
50543;SDS011;41176;44.032;20.900;2023-01-30T11:11:20;6.85;;;3.80;;
50543;SDS011;41176;44.032;20.900;2023-01-30T11:16:27;1.75;;;1.63;;
50543;SDS011;41176;44.032;20.900;2023-01-30T11:18:52;2.10;;;1.77;;
50543;SDS011;41176;44.032;20.900;2023-01-30T11:21:23;4.18;;;2.90;;
50543;SDS011;41176;44.032;20.900;2023-01-30T11:23:52;2.13;;;1.52;;
50543;SDS011;41176;44.032;20.900;2023-01-30T11:26:20;6.15;;;3.92;;
50543;SDS011;41176;44.032;20.900;2023-01-30T11:28:57;4.88;;;3.00;;
50543;SDS011;41176;44.032;20.900;2023-01-30T11:31:26;6.85;;;2.88;;
50543;SDS011;41176;44.032;20.900;2023-01-30T11:34:00;7.53;;;2.50;;
50543;SDS011;41176;44.032;20.900;2023-01-30T11:36:30;5.32;;;2.83;;
50543;SDS011;41176;44.032;20.900;2023-01-30T11:38:58;5.35;;;3.33;;
50543;SDS011;41176;44.032;20.900;2023-01-30T11:41:26;2.72;;;1.40;;
50543;SDS011;41176;44.032;20.900;2023-01-30T11:44:03;3.35;;;2.30;;
50543;SDS011;41176;44.032;20.900;2023-01-30T11:46:30;3.75;;;2.75;;
50543;SDS011;41176;44.032;20.900;2023-01-30T11:49:00;6.90;;;3.00;;
50543;SDS011;41176;44.032;20.900;2023-01-30T11:51:29;1.83;;;1.15;;
50543;SDS011;41176;44.032;20.900;2023-01-30T11:53:59;3.22;;;1.98;;
50543;SDS011;41176;44.032;20.900;2023-01-30T11:56:35;4.80;;;2.20;;
50543;SDS011;41176;44.032;20.900;2023-01-30T11:59:05;6.53;;;2.25;;
50543;SDS011;41176;44.032;20.900;2023-01-30T12:01:46;4.53;;;1.92;;
50543;SDS011;41176;44.032;20.900;2023-01-30T12:04:14;7.05;;;1.65;;
50543;SDS011;41176;44.032;20.900;2023-01-30T12:06:41;2.90;;;2.30;;
50543;SDS011;41176;44.032;20.900;2023-01-30T12:11:51;4.45;;;2.50;;
50543;SDS011;41176;44.032;20.900;2023-01-30T12:14:26;3.50;;;2.15;;
50543;SDS011;41176;44.032;20.900;2023-01-30T12:22:54;6.60;;;3.20;;
50543;SDS011;41176;44.032;20.900;2023-01-30T12:25:26;4.13;;;3.47;;
50543;SDS011;41176;44.032;20.900;2023-01-30T12:28:01;3.25;;;2.00;;
50543;SDS011;41176;44.032;20.900;2023-01-30T12:30:36;3.38;;;2.05;;
50543;SDS011;41176;44.032;20.900;2023-01-30T12:33:12;2.78;;;2.33;;
50543;SDS011;41176;44.032;20.900;2023-01-30T12:35:43;6.03;;;3.85;;
50543;SDS011;41176;44.032;20.900;2023-01-30T12:38:52;2.58;;;2.00;;
50543;SDS011;41176;44.032;20.900;2023-01-30T12:41:17;2.05;;;1.08;;
50543;SDS011;41176;44.032;20.900;2023-01-30T12:49:48;3.47;;;2.13;;
50543;SDS011;41176;44.032;20.900;2023-01-30T12:55:45;3.72;;;2.42;;
50543;SDS011;41176;44.032;20.900;2023-01-30T12:58:40;2.50;;;2.15;;
50543;SDS011;41176;44.032;20.900;2023-01-30T13:01:27;3.25;;;1.77;;
50543;SDS011;41176;44.032;20.900;2023-01-30T13:04:28;12.07;;;4.72;;
50543;SDS011;41176;44.032;20.900;2023-01-30T13:10:13;4.35;;;3.13;;
50543;SDS011;41176;44.032;20.900;2023-01-30T13:13:11;2.70;;;1.90;;
50543;SDS011;41176;44.032;20.900;2023-01-30T13:16:10;2.70;;;2.50;;
50543;SDS011;41176;44.032;20.900;2023-01-30T13:18:55;2.20;;;1.60;;
50543;SDS011;41176;44.032;20.900;2023-01-30T13:21:33;3.53;;;2.40;;
50543;SDS011;41176;44.032;20.900;2023-01-30T13:27:44;1.73;;;1.27;;
50543;SDS011;41176;44.032;20.900;2023-01-30T13:30:23;5.20;;;2.65;;
50543;SDS011;41176;44.032;20.900;2023-01-30T13:33:03;3.72;;;2.33;;
50543;SDS011;41176;44.032;20.900;2023-01-30T13:35:40;4.47;;;2.20;;
50543;SDS011;41176;44.032;20.900;2023-01-30T13:38:13;2.35;;;1.92;;
50543;SDS011;41176;44.032;20.900;2023-01-30T13:40:44;3.05;;;1.77;;
50543;SDS011;41176;44.032;20.900;2023-01-30T13:45:41;6.53;;;3.20;;
50543;SDS011;41176;44.032;20.900;2023-01-30T13:59:03;8.98;;;4.68;;
50543;SDS011;41176;44.032;20.900;2023-01-30T14:07:45;7.95;;;3.95;;
50543;SDS011;41176;44.032;20.900;2023-01-30T14:12:35;3.83;;;2.50;;
50543;SDS011;41176;44.032;20.900;2023-01-30T14:20:31;5.50;;;3.55;;
50543;SDS011;41176;44.032;20.900;2023-01-30T14:22:58;8.27;;;5.15;;
50543;SDS011;41176;44.032;20.900;2023-01-30T14:25:50;5.03;;;2.85;;
50543;SDS011;41176;44.032;20.900;2023-01-30T14:35:47;8.07;;;5.15;;
50543;SDS011;41176;44.032;20.900;2023-01-30T14:38:22;10.00;;;4.95;;
50543;SDS011;41176;44.032;20.900;2023-01-30T15:01:55;7.47;;;4.57;;
50543;SDS011;41176;44.032;20.900;2023-01-30T15:04:25;9.75;;;3.83;;
50543;SDS011;41176;44.032;20.900;2023-01-30T15:06:53;7.82;;;3.38;;
50543;SDS011;41176;44.032;20.900;2023-01-30T15:09:21;3.85;;;3.53;;
50543;SDS011;41176;44.032;20.900;2023-01-30T15:12:10;3.00;;;2.70;;
50543;SDS011;41176;44.032;20.900;2023-01-30T15:32:17;7.45;;;4.80;;
50543;SDS011;41176;44.032;20.900;2023-01-30T15:34:55;5.28;;;4.78;;
50543;SDS011;41176;44.032;20.900;2023-01-30T15:40:10;5.90;;;4.85;;
50543;SDS011;41176;44.032;20.900;2023-01-30T15:51:28;9.60;;;3.27;;
50543;SDS011;41176;44.032;20.900;2023-01-30T15:53:57;7.00;;;3.40;;
50543;SDS011;41176;44.032;20.900;2023-01-30T15:56:26;2.60;;;2.05;;
50543;SDS011;41176;44.032;20.900;2023-01-30T15:58:55;3.95;;;3.60;;
50543;SDS011;41176;44.032;20.900;2023-01-30T16:01:23;9.63;;;5.53;;
50543;SDS011;41176;44.032;20.900;2023-01-30T16:03:49;4.22;;;2.80;;
50543;SDS011;41176;44.032;20.900;2023-01-30T16:06:30;4.70;;;4.10;;
50543;SDS011;41176;44.032;20.900;2023-01-30T16:08:59;2.67;;;2.40;;
50543;SDS011;41176;44.032;20.900;2023-01-30T16:11:42;3.03;;;2.53;;
50543;SDS011;41176;44.032;20.900;2023-01-30T16:14:10;8.40;;;3.50;;
50543;SDS011;41176;44.032;20.900;2023-01-30T16:16:41;4.90;;;3.97;;
50543;SDS011;41176;44.032;20.900;2023-01-30T16:19:27;7.80;;;6.07;;
50543;SDS011;41176;44.032;20.900;2023-01-30T16:21:56;8.55;;;5.00;;
50543;SDS011;41176;44.032;20.900;2023-01-30T16:24:26;5.50;;;4.78;;
50543;SDS011;41176;44.032;20.900;2023-01-30T16:26:56;4.47;;;3.50;;
50543;SDS011;41176;44.032;20.900;2023-01-30T16:29:25;14.70;;;6.05;;
50543;SDS011;41176;44.032;20.900;2023-01-30T16:31:52;9.27;;;6.07;;
50543;SDS011;41176;44.032;20.900;2023-01-30T16:36:45;5.45;;;4.75;;
50543;SDS011;41176;44.032;20.900;2023-01-30T16:39:23;12.48;;;8.35;;
50543;SDS011;41176;44.032;20.900;2023-01-30T16:41:54;8.65;;;5.32;;
50543;SDS011;41176;44.032;20.900;2023-01-30T16:44:24;8.95;;;6.18;;
50543;SDS011;41176;44.032;20.900;2023-01-30T16:46:58;12.52;;;6.00;;
50543;SDS011;41176;44.032;20.900;2023-01-30T16:52:11;7.93;;;6.45;;
50543;SDS011;41176;44.032;20.900;2023-01-30T16:54:48;6.07;;;4.00;;
50543;SDS011;41176;44.032;20.900;2023-01-30T17:02:36;9.95;;;5.28;;
50543;SDS011;41176;44.032;20.900;2023-01-30T17:05:14;7.97;;;5.57;;
50543;SDS011;41176;44.032;20.900;2023-01-30T17:07:45;5.63;;;4.97;;
50543;SDS011;41176;44.032;20.900;2023-01-30T17:13:01;8.38;;;5.53;;
50543;SDS011;41176;44.032;20.900;2023-01-30T17:15:29;8.00;;;4.25;;
50543;SDS011;41176;44.032;20.900;2023-01-30T17:17:56;6.30;;;4.85;;
50543;SDS011;41176;44.032;20.900;2023-01-30T17:20:22;13.20;;;7.55;;
50543;SDS011;41176;44.032;20.900;2023-01-30T17:22:49;8.65;;;5.57;;
50543;SDS011;41176;44.032;20.900;2023-01-30T17:25:41;9.63;;;6.78;;
50543;SDS011;41176;44.032;20.900;2023-01-30T17:28:10;10.43;;;9.32;;
50543;SDS011;41176;44.032;20.900;2023-01-30T17:30:42;8.68;;;7.88;;
50543;SDS011;41176;44.032;20.900;2023-01-30T17:33:07;12.88;;;10.38;;
50543;SDS011;41176;44.032;20.900;2023-01-30T17:35:35;15.90;;;12.55;;
50543;SDS011;41176;44.032;20.900;2023-01-30T17:38:01;12.98;;;10.00;;
50543;SDS011;41176;44.032;20.900;2023-01-30T17:40:30;12.82;;;11.55;;
50543;SDS011;41176;44.032;20.900;2023-01-30T17:43:00;18.30;;;13.10;;
50543;SDS011;41176;44.032;20.900;2023-01-30T17:45:26;15.50;;;13.88;;
50543;SDS011;41176;44.032;20.900;2023-01-30T17:47:52;13.77;;;10.07;;
50543;SDS011;41176;44.032;20.900;2023-01-30T17:50:18;12.05;;;8.38;;
50543;SDS011;41176;44.032;20.900;2023-01-30T17:52:44;14.13;;;7.68;;